Airfield :
LOGIN :

Register | Disclaimer

   EN    FR    IT 

 










Legend :    VFR   Marginal VFR   IFR   Intensive IFR   Very Intensive IFR
Visi :
Ceiling :
>= 8 km
>= 3000ft
5 to 8 km
1000 to 3000 ft
1500m to 5 km
500 to 1000 ft
800 to 1500m
200 to 500 ft
< 800m
< 200 ft
Symbols :   Thunderstorms  Fog  Heavy snow  Heavy precipitations  Wind > 20 kt
SIGMETs :     Misc.  Thunderstorms  Icing  Turbulence  Mountain Waves  Volcanic Ashes







- Airport Elevation : 290 ft
- IATA code : LAI
- Download approach charts


LFRO - Lannion

CURRENT METAR :
  • 181730Z AUTO 15011KT 9999 FEW011 BKN025 OVC030 06/05 Q1009 NOSIG

EXPIRED METARs :
  • 181700Z AUTO 15012KT 9999 SCT010/// SCT023/// BKN035/// ///TCU 07/05 Q1009 TEMPO 3000 RA BECMG BKN015
  • 181630Z AUTO 15011KT 9999 OVC009/// ///CB 07/05 Q1010 TEMPO 3000 RA BECMG BKN015
  • 181600Z AUTO 14013KT 9999 BKN010/// BKN014/// BKN023/// ///CB 06/05 Q1010 TEMPO 3000 RA BKN003
  • 181530Z AUTO 14011KT 9999 -RA OVC012/// ///CB 06/05 Q1010 TEMPO 3000 RA BKN003
  • 181500Z AUTO 14012KT 9999 -RA OVC013/// ///TCU 06/05 Q1010 TEMPO 3000 RA BKN003

TAF TAF LFRO
Valid from the 18 at 18:00 until the 19 at 18:00 UTC


181700Z 1818/1918 18006KT 9999 FEW010 BKN020TCU
BECMG 1818/1820 9999 NSW SCT020 SCT030
TEMPO 1821/1912 4000 SHRA FEW015TCU BKN020
No reported NOTAMs for that airfield.



MET'MAP, your aeronautical weather chart ! - Copyright ORBIFLY December 2007 - Disclaimer

ORBIFLY MET'MAP TEAM :

Programming & Development : Alexandra Zaïnal
Concept & Development : Baudouin d'Aumeries
Co-Development & Prog : Marc-Olivier Méhu
Technical & hardware support : Manuel Goepfert

Contact : metmap@orbifly.com




SOURCES & CREDITS :

   NOAA